Terminal Aerodrome Forecast
Issued by NWS

Home | Current Version | Previous Version | Text Only | Print | Product List | Glossary On
Versions: 1 2 3 4 5 6 7 8 9 10 11 12 13 14 15 16 17 18 19 20 21 22 23 24 25 26 27 28 29 30 31 32
185
FTUS41 KOKX 301432 AAC
TAFGON
TAF AMD
KGON 301432Z 3015/3112 16006KT P6SM SCT040 BKN200
     FM310000 18003KT P6SM SCT020 BKN050 BKN120
     FM311000 13005KT 3SM BR BKN020 BKN050 PROB30 3110/3112 6SM
      -SHRA=

USA.gov is the U.S. government's official web portal to all federal, state and local government web resources and services.